createdAt,value
2019-02-22T00:00:52.346Z,12.00
2019-02-22T00:01:52.335Z,12.00
2019-02-22T00:02:52.357Z,12.00
2019-02-22T00:03:52.309Z,12.00
2019-02-22T00:04:52.323Z,16.00
2019-02-22T00:05:52.285Z,12.00
2019-02-22T00:06:52.290Z,12.00
2019-02-22T00:07:52.271Z,16.00
2019-02-22T00:08:52.298Z,12.00
2019-02-22T00:09:52.251Z,12.00
2019-02-22T00:10:52.246Z,12.00
2019-02-22T00:11:52.262Z,12.00
2019-02-22T00:12:52.241Z,12.00
2019-02-22T00:13:52.207Z,12.00
2019-02-22T00:14:52.241Z,16.00
2019-02-22T00:15:52.190Z,12.00
2019-02-22T00:16:52.182Z,12.00
2019-02-22T00:17:52.171Z,12.00
2019-02-22T00:18:52.187Z,12.00
2019-02-22T00:19:52.150Z,12.00
2019-02-22T00:20:52.178Z,12.00
2019-02-22T00:22:02.550Z,12.00
2019-02-22T00:22:52.115Z,12.00
2019-02-22T00:23:52.108Z,12.00
2019-02-22T00:24:52.102Z,12.00
2019-02-22T00:25:52.089Z,12.00
2019-02-22T00:26:52.130Z,12.00
2019-02-22T00:27:52.067Z,12.00
2019-02-22T00:28:52.054Z,12.00
2019-02-22T00:29:52.074Z,12.00
2019-02-22T00:30:52.041Z,12.00
2019-02-22T00:31:52.045Z,12.00
2019-02-22T00:32:52.037Z,12.00
2019-02-22T00:33:52.018Z,12.00
2019-02-22T00:34:52.127Z,12.00
2019-02-22T00:35:52.151Z,12.00
2019-02-22T00:36:52.164Z,12.00
2019-02-22T00:37:51.997Z,12.00
2019-02-22T00:38:51.957Z,12.00
2019-02-22T00:39:51.976Z,12.00
2019-02-22T00:40:51.939Z,12.00
2019-02-22T00:41:51.926Z,12.00
2019-02-22T00:42:51.943Z,12.00
2019-02-22T00:43:51.982Z,12.00
2019-02-22T00:44:51.901Z,12.00
2019-02-22T00:45:51.896Z,12.00
2019-02-22T00:46:51.876Z,12.00
2019-02-22T00:47:51.891Z,12.00
2019-02-22T00:48:51.857Z,12.00
2019-02-22T00:49:51.891Z,12.00
2019-02-22T00:50:51.841Z,12.00
2019-02-22T00:51:51.829Z,12.00
2019-02-22T00:53:02.277Z,12.00
2019-02-22T00:53:51.847Z,12.00
2019-02-22T00:54:51.825Z,12.00
2019-02-22T00:55:51.833Z,12.00
2019-02-22T00:56:51.778Z,12.00
2019-02-22T00:57:51.772Z,12.00
2019-02-22T00:58:51.762Z,12.00
2019-02-22T00:59:51.753Z,12.00
2019-02-22T01:00:51.748Z,12.00
2019-02-22T01:01:51.767Z,12.00
2019-02-22T01:02:51.715Z,12.00
2019-02-22T01:03:51.714Z,12.00
2019-02-22T01:04:51.698Z,12.00
2019-02-22T01:05:51.701Z,12.00
2019-02-22T01:06:51.680Z,12.00
2019-02-22T01:07:51.736Z,12.00
2019-02-22T01:08:51.664Z,12.00
2019-02-22T01:09:51.653Z,12.00
2019-02-22T01:10:51.635Z,12.00
2019-02-22T01:11:51.643Z,12.00
2019-02-22T01:12:51.619Z,12.00
2019-02-22T01:13:51.657Z,12.00
2019-02-22T01:14:51.609Z,12.00
2019-02-22T01:15:51.594Z,12.00
2019-02-22T01:16:51.574Z,12.00
2019-02-22T01:17:51.576Z,16.00
2019-02-22T01:18:51.562Z,12.00
2019-02-22T01:19:51.582Z,12.00
2019-02-22T01:20:54.342Z,12.00
2019-02-22T01:21:51.525Z,12.00
2019-02-22T01:22:51.528Z,12.00
2019-02-22T01:24:01.597Z,12.00
2019-02-22T01:24:51.497Z,16.00
2019-02-22T01:25:51.531Z,12.00
2019-02-22T01:26:51.483Z,12.00
2019-02-22T01:27:51.473Z,12.00
2019-02-22T01:28:51.471Z,12.00
2019-02-22T01:29:51.461Z,12.00
2019-02-22T01:30:51.437Z,12.00
2019-02-22T01:31:51.561Z,12.00
2019-02-22T01:32:51.609Z,12.00
2019-02-22T01:33:54.005Z,12.00
2019-02-22T01:34:51.421Z,12.00
2019-02-22T01:35:51.390Z,12.00
2019-02-22T01:36:51.398Z,12.00
2019-02-22T01:37:51.409Z,12.00
2019-02-22T01:38:51.365Z,12.00
2019-02-22T01:39:51.359Z,12.00
2019-02-22T01:40:51.340Z,12.00
2019-02-22T01:41:51.985Z,12.00
2019-02-22T01:42:51.321Z,12.00
2019-02-22T01:43:51.502Z,12.00
2019-02-22T01:44:51.299Z,12.00
2019-02-22T01:45:51.283Z,12.00
2019-02-22T01:46:51.277Z,12.00
2019-02-22T01:47:51.265Z,12.00
2019-02-22T01:48:51.262Z,12.00
2019-02-22T01:49:51.306Z,12.00
2019-02-22T01:50:51.233Z,12.00
2019-02-22T01:51:51.233Z,12.00
2019-02-22T01:52:51.221Z,12.00
2019-02-22T01:53:53.879Z,12.00
2019-02-22T01:55:01.546Z,12.00
2019-02-22T01:55:51.188Z,12.00
2019-02-22T01:56:51.176Z,12.00
2019-02-22T01:57:51.171Z,12.00
2019-02-22T01:58:51.162Z,12.00
2019-02-22T01:59:51.177Z,12.00
2019-02-22T02:00:51.174Z,12.00
2019-02-22T02:01:51.128Z,12.00
2019-02-22T02:02:51.145Z,12.00
2019-02-22T02:03:51.108Z,12.00
2019-02-22T02:04:51.101Z,12.00
2019-02-22T02:05:51.105Z,12.00
2019-02-22T02:06:51.101Z,12.00
2019-02-22T02:07:51.062Z,12.00
2019-02-22T02:08:51.062Z,12.00
2019-02-22T02:09:51.045Z,12.00
2019-02-22T02:10:54.107Z,12.00
2019-02-22T02:11:51.025Z,12.00
2019-02-22T02:12:51.061Z,12.00
2019-02-22T02:13:51.003Z,12.00
2019-02-22T02:14:50.996Z,12.00
2019-02-22T02:15:50.995Z,12.00
2019-02-22T02:16:50.995Z,12.00
2019-02-22T02:17:50.966Z,12.00
2019-02-22T02:18:50.999Z,12.00
2019-02-22T02:19:50.945Z,12.00
2019-02-22T02:20:50.960Z,12.00
2019-02-22T02:21:50.930Z,12.00
2019-02-22T02:22:50.997Z,12.00
2019-02-22T02:23:50.906Z,12.00
2019-02-22T02:24:50.935Z,12.00
2019-02-22T02:26:02.053Z,12.00
2019-02-22T02:26:50.932Z,12.00
2019-02-22T02:27:50.870Z,12.00
2019-02-22T02:28:51.744Z,12.00
2019-02-22T02:29:50.864Z,12.00
2019-02-22T02:30:51.052Z,12.00
2019-02-22T02:31:50.824Z,12.00
2019-02-22T02:32:50.821Z,12.00
2019-02-22T02:33:50.829Z,12.00
2019-02-22T02:34:50.801Z,12.00
2019-02-22T02:35:50.790Z,12.00
2019-02-22T02:36:50.794Z,12.00
2019-02-22T02:37:50.769Z,12.00
2019-02-22T02:38:50.798Z,12.00
2019-02-22T02:39:50.750Z,16.00
2019-02-22T02:40:50.739Z,12.00
2019-02-22T02:41:50.725Z,12.00
2019-02-22T02:42:50.764Z,12.00
2019-02-22T02:43:50.702Z,12.00
2019-02-22T02:44:50.723Z,12.00
2019-02-22T02:45:50.688Z,12.00
2019-02-22T02:46:50.672Z,12.00
2019-02-22T02:47:51.540Z,16.00
2019-02-22T02:48:50.677Z,12.00
2019-02-22T02:49:50.651Z,12.00
2019-02-22T02:50:50.641Z,12.00
2019-02-22T02:51:50.647Z,12.00
2019-02-22T02:52:50.628Z,12.00
2019-02-22T02:53:50.605Z,16.00
2019-02-22T02:54:50.630Z,12.00
2019-02-22T02:55:50.581Z,12.00
2019-02-22T02:57:01.838Z,12.00
2019-02-22T02:57:50.570Z,12.00
2019-02-22T02:58:50.554Z,12.00
2019-02-22T02:59:50.557Z,12.00
2019-02-22T03:00:50.578Z,12.00
2019-02-22T03:01:50.559Z,12.00
2019-02-22T03:02:50.517Z,12.00
2019-02-22T03:03:50.510Z,16.00
2019-02-22T03:04:50.517Z,16.00
2019-02-22T03:05:50.490Z,12.00
2019-02-22T03:06:50.602Z,16.00
2019-02-22T03:07:50.465Z,12.00
2019-02-22T03:08:50.461Z,12.00
2019-02-22T03:09:50.464Z,16.00
2019-02-22T03:10:50.436Z,12.00
2019-02-22T03:11:50.428Z,12.00
2019-02-22T03:12:50.581Z,12.00
2019-02-22T03:13:50.403Z,12.00
2019-02-22T03:14:50.400Z,12.00
2019-02-22T03:15:50.384Z,16.00
2019-02-22T03:16:50.400Z,16.00
2019-02-22T03:17:50.370Z,16.00
2019-02-22T03:18:50.390Z,12.00
2019-02-22T03:19:50.343Z,12.00
2019-02-22T03:20:50.343Z,12.00
2019-02-22T03:21:50.327Z,16.00
2019-02-22T03:22:50.324Z,12.00
2019-02-22T03:23:50.311Z,12.00
2019-02-22T03:24:53.608Z,12.00
2019-02-22T03:25:50.292Z,12.00
2019-02-22T03:26:50.280Z,12.00
2019-02-22T03:28:00.905Z,12.00
2019-02-22T03:28:50.256Z,12.00
2019-02-22T03:29:50.242Z,12.00
2019-02-22T03:30:50.445Z,12.00
2019-02-22T03:31:50.240Z,16.00
2019-02-22T03:32:50.217Z,12.00
2019-02-22T03:33:50.237Z,12.00
2019-02-22T03:34:50.199Z,16.00
2019-02-22T03:35:50.185Z,12.00
2019-02-22T03:36:50.240Z,12.00
2019-02-22T03:37:50.168Z,12.00
2019-02-22T03:38:50.157Z,12.00
2019-02-22T03:39:50.146Z,12.00
2019-02-22T03:40:50.131Z,12.00
2019-02-22T03:41:50.143Z,12.00
2019-02-22T03:42:50.151Z,12.00
2019-02-22T03:43:50.107Z,16.00
2019-02-22T03:44:50.093Z,12.00
2019-02-22T03:45:50.089Z,12.00
2019-02-22T03:46:50.071Z,12.00
2019-02-22T03:47:50.081Z,12.00
2019-02-22T03:48:50.088Z,16.00
2019-02-22T03:49:50.041Z,12.00
2019-02-22T03:50:50.033Z,12.00
2019-02-22T03:51:50.038Z,12.00
2019-02-22T03:52:50.019Z,12.00
2019-02-22T03:53:50.147Z,12.00
2019-02-22T03:54:50.007Z,12.00
2019-02-22T03:55:49.991Z,12.00
2019-02-22T03:56:49.982Z,12.00
2019-02-22T03:57:49.967Z,12.00
2019-02-22T03:59:00.650Z,12.00
2019-02-22T03:59:51.151Z,12.00
2019-02-22T04:00:49.936Z,12.00
2019-02-22T04:01:49.930Z,12.00
2019-02-22T04:02:49.925Z,12.00
2019-02-22T04:03:49.956Z,12.00
2019-02-22T04:04:49.920Z,12.00
2019-02-22T04:05:49.891Z,12.00
2019-02-22T04:06:49.900Z,12.00
2019-02-22T04:07:49.886Z,12.00
2019-02-22T04:08:49.871Z,12.00
2019-02-22T04:09:49.874Z,12.00
2019-02-22T04:10:50.013Z,12.00
2019-02-22T04:11:49.825Z,12.00
2019-02-22T04:12:49.821Z,12.00
2019-02-22T04:13:49.808Z,12.00
2019-02-22T04:14:49.812Z,12.00
2019-02-22T04:15:49.785Z,12.00
2019-02-22T04:16:49.818Z,12.00
2019-02-22T04:17:49.768Z,12.00
2019-02-22T04:18:49.758Z,12.00
2019-02-22T04:19:49.755Z,12.00
2019-02-22T04:20:49.768Z,12.00
2019-02-22T04:21:49.723Z,12.00
2019-02-22T04:22:49.756Z,12.00
2019-02-22T04:23:49.714Z,12.00
2019-02-22T04:24:49.697Z,12.00
2019-02-22T04:25:49.689Z,12.00
2019-02-22T04:26:49.691Z,12.00
2019-02-22T04:27:49.666Z,12.00
2019-02-22T04:28:49.658Z,12.00
2019-02-22T04:30:02.109Z,12.00
2019-02-22T04:30:49.631Z,12.00
2019-02-22T04:31:49.624Z,12.00
2019-02-22T04:32:49.611Z,12.00
2019-02-22T04:33:49.670Z,12.00
2019-02-22T04:34:49.592Z,12.00
2019-02-22T04:35:49.582Z,12.00
2019-02-22T04:36:49.605Z,12.00
2019-02-22T04:37:49.563Z,12.00
2019-02-22T04:38:49.552Z,12.00
2019-02-22T04:39:49.582Z,12.00
2019-02-22T04:40:49.537Z,20.00
2019-02-22T04:41:57.701Z,12.00
2019-02-22T04:42:50.517Z,12.00
2019-02-22T04:43:49.504Z,16.00
2019-02-22T04:44:49.498Z,16.00
2019-02-22T04:45:49.500Z,16.00
2019-02-22T04:46:49.478Z,12.00
2019-02-22T04:47:49.482Z,12.00
2019-02-22T04:48:49.459Z,12.00
2019-02-22T04:49:49.441Z,16.00
2019-02-22T04:50:49.443Z,16.00
2019-02-22T04:51:49.446Z,16.00
2019-02-22T04:52:49.421Z,16.00
2019-02-22T04:53:49.427Z,16.00
2019-02-22T04:54:49.396Z,16.00
2019-02-22T04:55:49.383Z,16.00
2019-02-22T04:56:49.371Z,16.00
2019-02-22T04:57:49.402Z,16.00
2019-02-22T04:58:49.353Z,20.00
2019-02-22T04:59:49.370Z,24.00
2019-02-22T05:00:59.219Z,24.00
2019-02-22T05:01:49.319Z,24.00
2019-02-22T05:02:49.330Z,28.00
2019-02-22T05:03:49.334Z,28.00
2019-02-22T05:04:49.299Z,32.00
2019-02-22T05:05:49.287Z,36.00
2019-02-22T05:06:49.355Z,40.00
2019-02-22T05:07:49.269Z,44.00
2019-02-22T05:08:49.268Z,48.00
2019-02-22T05:09:49.267Z,52.00
2019-02-22T05:10:49.270Z,60.00
2019-02-22T05:11:49.221Z,68.00
2019-02-22T05:12:49.224Z,76.00
2019-02-22T05:13:49.219Z,84.00
2019-02-22T05:14:49.206Z,92.00
2019-02-22T05:15:49.194Z,100.00
2019-02-22T05:16:49.176Z,108.00
2019-02-22T05:17:49.197Z,124.00
2019-02-22T05:18:49.171Z,136.00
2019-02-22T05:19:49.149Z,148.00
2019-02-22T05:20:49.184Z,164.00
2019-02-22T05:21:49.146Z,180.00
2019-02-22T05:22:49.117Z,188.00
2019-02-22T05:23:49.109Z,220.00
2019-02-22T05:24:49.094Z,240.00
2019-02-22T05:25:49.129Z,260.00
2019-02-22T05:26:49.076Z,284.00
2019-02-22T05:27:49.107Z,308.00
2019-02-22T05:28:49.058Z,336.00
2019-02-22T05:29:49.055Z,360.00
2019-02-22T05:30:49.040Z,388.00
2019-02-22T05:31:59.491Z,416.00
2019-02-22T05:32:49.017Z,452.00
2019-02-22T05:33:49.178Z,484.00
2019-02-22T05:34:49.001Z,520.00
2019-02-22T05:35:48.983Z,552.00
2019-02-22T05:36:48.974Z,580.00
2019-02-22T05:37:48.966Z,612.00
2019-02-22T05:38:48.954Z,644.00
2019-02-22T05:39:48.973Z,684.00
2019-02-22T05:40:48.943Z,724.00
2019-02-22T05:41:48.936Z,768.00
2019-02-22T05:42:49.037Z,808.00
2019-02-22T05:43:48.902Z,852.00
2019-02-22T05:44:48.893Z,892.00
2019-02-22T05:45:48.927Z,940.00
2019-02-22T05:46:59.663Z,984.00
2019-02-22T05:47:49.873Z,1024.00
2019-02-22T05:48:48.878Z,1076.00
2019-02-22T05:49:48.849Z,1116.00
2019-02-22T05:50:48.832Z,1168.00
2019-02-22T05:51:48.871Z,1212.00
2019-02-22T05:52:48.811Z,1260.00
2019-02-22T05:53:48.812Z,1304.00
2019-02-22T05:54:48.801Z,1356.00
2019-02-22T05:55:48.822Z,1400.00
2019-02-22T05:56:48.795Z,1448.00
2019-02-22T05:57:48.776Z,1488.00
2019-02-22T05:58:48.760Z,1544.00
2019-02-22T05:59:48.850Z,1592.00
2019-02-22T06:00:48.734Z,1644.00
2019-02-22T06:01:48.728Z,1692.00
2019-02-22T06:02:59.224Z,1736.00
2019-02-22T06:03:48.701Z,1788.00
2019-02-22T06:04:48.700Z,1832.00
2019-02-22T06:05:49.694Z,1860.00
2019-02-22T06:06:48.697Z,1924.00
2019-02-22T06:07:48.663Z,1972.00
2019-02-22T06:08:48.743Z,2020.00
2019-02-22T06:09:48.646Z,2068.00
2019-02-22T06:10:48.634Z,2112.00
2019-02-22T06:11:48.625Z,2160.00
2019-02-22T06:12:48.614Z,2204.00
2019-02-22T06:13:48.604Z,2236.00
2019-02-22T06:14:48.640Z,2280.00
2019-02-22T06:15:48.584Z,2324.00
2019-02-22T06:16:48.619Z,2368.00
2019-02-22T06:17:48.567Z,2424.00
2019-02-22T06:18:48.576Z,2476.00
2019-02-22T06:19:48.597Z,2520.00
2019-02-22T06:20:48.569Z,2564.00
2019-02-22T06:21:48.522Z,2608.00
2019-02-22T06:22:48.524Z,2648.00
2019-02-22T06:23:48.503Z,2684.00
2019-02-22T06:24:48.500Z,2676.00
2019-02-22T06:25:48.513Z,2764.00
2019-02-22T06:26:48.650Z,2800.00
2019-02-22T06:27:48.464Z,2860.00
2019-02-22T06:28:48.454Z,2968.00
2019-02-22T06:29:49.729Z,2944.00
2019-02-22T06:30:48.438Z,2984.00
2019-02-22T06:31:48.422Z,3016.00
2019-02-22T06:32:48.424Z,3060.00
2019-02-22T06:33:58.917Z,3104.00
2019-02-22T06:34:48.396Z,3144.00
2019-02-22T06:35:48.389Z,3188.00
2019-02-22T06:37:00.824Z,3224.00
2019-02-22T06:37:49.435Z,3252.00
2019-02-22T06:38:48.362Z,3304.00
2019-02-22T06:39:48.350Z,3336.00
2019-02-22T06:40:48.447Z,3380.00
2019-02-22T06:41:48.332Z,3420.00
2019-02-22T06:42:48.313Z,3460.00
2019-02-22T06:43:48.354Z,3504.00
2019-02-22T06:44:48.301Z,3536.00
2019-02-22T06:45:48.332Z,3588.00
2019-02-22T06:46:48.279Z,3624.00
2019-02-22T06:47:48.263Z,3648.00
2019-02-22T06:48:48.254Z,3692.00
2019-02-22T06:49:48.281Z,3724.00
2019-02-22T06:50:48.237Z,3764.00
2019-02-22T06:51:48.234Z,3800.00
2019-02-22T06:52:48.215Z,3836.00
2019-02-22T06:53:48.203Z,3876.00
2019-02-22T06:54:48.196Z,3912.00
2019-02-22T06:55:48.228Z,3948.00
2019-02-22T06:56:48.184Z,3980.00
2019-02-22T06:57:48.206Z,4016.00
2019-02-22T06:58:48.160Z,4056.00
2019-02-22T06:59:48.511Z,4092.00
2019-02-22T07:00:48.139Z,4120.00
2019-02-22T07:01:50.051Z,4168.00
2019-02-22T07:02:48.140Z,4200.00
2019-02-22T07:03:48.118Z,4236.00
2019-02-22T07:04:58.350Z,4272.00
2019-02-22T07:05:48.094Z,4308.00
2019-02-22T07:06:48.074Z,4352.00
2019-02-22T07:07:48.111Z,4392.00
2019-02-22T07:08:48.092Z,4424.00
2019-02-22T07:09:48.088Z,4460.00
2019-02-22T07:10:48.120Z,4496.00
2019-02-22T07:11:48.037Z,4536.00
2019-02-22T07:12:56.525Z,4576.00
2019-02-22T07:13:49.100Z,4604.00
2019-02-22T07:14:47.989Z,4652.00
2019-02-22T07:15:48.033Z,4692.00
2019-02-22T07:16:48.174Z,4728.00
2019-02-22T07:17:47.965Z,4776.00
2019-02-22T07:18:49.894Z,4824.00
2019-02-22T07:19:48.237Z,4856.00
2019-02-22T07:20:48.046Z,4896.00
2019-02-22T07:21:52.450Z,4936.00
2019-02-22T07:22:48.909Z,4980.00
2019-02-22T07:23:47.899Z,5012.00
2019-02-22T07:24:48.079Z,5060.00
2019-02-22T07:25:48.070Z,5100.00
2019-02-22T07:26:48.075Z,5140.00
2019-02-22T07:27:47.858Z,5172.00
2019-02-22T07:28:47.848Z,5220.00
2019-02-22T07:29:48.071Z,5264.00
2019-02-22T07:30:48.075Z,5300.00
2019-02-22T07:31:48.078Z,5332.00
2019-02-22T07:32:48.165Z,5388.00
2019-02-22T07:33:47.806Z,5416.00
2019-02-22T07:34:47.801Z,5456.00
2019-02-22T07:35:57.804Z,5500.00
2019-02-22T07:36:48.186Z,5532.00
2019-02-22T07:37:47.760Z,5576.00
2019-02-22T07:38:48.064Z,5640.00
2019-02-22T07:39:47.776Z,5656.00
2019-02-22T07:40:48.053Z,5748.00
2019-02-22T07:41:48.044Z,5768.00
2019-02-22T07:42:47.708Z,5792.00
2019-02-22T07:43:47.705Z,5840.00
2019-02-22T07:44:47.755Z,5860.00
2019-02-22T07:45:47.683Z,5912.00
2019-02-22T07:46:47.670Z,5992.00
2019-02-22T07:47:47.662Z,6044.00
2019-02-22T07:48:47.646Z,6088.00
2019-02-22T07:49:47.664Z,6160.00
2019-02-22T07:50:56.881Z,6152.00
2019-02-22T07:51:48.617Z,6240.00
2019-02-22T07:52:47.760Z,6284.00
2019-02-22T07:53:47.600Z,6328.00
2019-02-22T07:54:47.589Z,6360.00
2019-02-22T07:55:47.606Z,6332.00
2019-02-22T07:56:47.565Z,6404.00
2019-02-22T07:57:47.560Z,6424.00
2019-02-22T07:58:47.547Z,6488.00
2019-02-22T07:59:47.538Z,6564.00
2019-02-22T08:00:47.524Z,6584.00
2019-02-22T08:01:48.292Z,6680.00
2019-02-22T08:02:47.502Z,6728.00
2019-02-22T08:03:47.494Z,6768.00
2019-02-22T08:04:47.498Z,6808.00
2019-02-22T08:05:47.490Z,6844.00
2019-02-22T08:07:00.280Z,6868.00
2019-02-22T08:07:54.450Z,6928.00
2019-02-22T08:08:48.430Z,6944.00
2019-02-22T08:09:47.430Z,7012.00
2019-02-22T08:10:47.562Z,7040.00
2019-02-22T08:11:48.161Z,7072.00
2019-02-22T08:12:47.598Z,7124.00
2019-02-22T08:13:47.397Z,7184.00
2019-02-22T08:14:47.377Z,7224.00
2019-02-22T08:15:47.380Z,7244.00
2019-02-22T08:16:47.361Z,7288.00
2019-02-22T08:17:47.353Z,7296.00
2019-02-22T08:18:47.383Z,7384.00
2019-02-22T08:19:55.534Z,7412.00
2019-02-22T08:20:47.320Z,7508.00
2019-02-22T08:21:54.311Z,7536.00
2019-02-22T08:22:47.350Z,7604.00
2019-02-22T08:23:54.383Z,7672.00
2019-02-22T08:24:47.276Z,7752.00
2019-02-22T08:25:47.359Z,7784.00
2019-02-22T08:26:47.253Z,7872.00
2019-02-22T08:27:54.492Z,9284.00
2019-02-22T08:28:47.235Z,20640.00
2019-02-22T08:29:47.294Z,34624.00
2019-02-22T08:30:47.222Z,49184.00
2019-02-22T08:31:47.204Z,59040.00
2019-02-22T08:32:48.108Z,61152.00
2019-02-22T08:33:47.462Z,60576.00
2019-02-22T08:34:47.215Z,61472.00
2019-02-22T08:35:47.196Z,60768.00
2019-02-22T08:36:47.156Z,58752.00
2019-02-22T08:37:47.147Z,59616.00
2019-02-22T08:38:47.135Z,61056.00
2019-02-22T08:39:58.304Z,62272.00
2019-02-22T08:40:48.160Z,63616.00
2019-02-22T08:41:47.106Z,64864.00
2019-02-22T08:42:47.087Z,65568.00
2019-02-22T08:43:47.078Z,66784.00
2019-02-22T08:44:47.074Z,65376.00
2019-02-22T08:45:47.064Z,66368.00
2019-02-22T08:46:47.061Z,68800.00
2019-02-22T08:47:47.038Z,70272.00
2019-02-22T08:48:47.063Z,67232.00
2019-02-22T08:49:47.011Z,64928.00
2019-02-22T08:50:47.009Z,65568.00
2019-02-22T08:51:47.052Z,66496.00
2019-02-22T08:52:47.082Z,69504.00
2019-02-22T08:53:46.966Z,70368.00
2019-02-22T08:54:57.933Z,72512.00
2019-02-22T08:55:46.943Z,70208.00
2019-02-22T08:56:46.938Z,70560.00
2019-02-22T08:57:53.928Z,70272.00
2019-02-22T08:58:46.911Z,70656.00
2019-02-22T08:59:46.915Z,70784.00
2019-02-22T09:00:47.021Z,72384.00
2019-02-22T09:01:47.116Z,71136.00
2019-02-22T09:02:46.882Z,71328.00
2019-02-22T09:03:50.564Z,72096.00
2019-02-22T09:04:47.065Z,73760.00
2019-02-22T09:05:46.842Z,73216.00
2019-02-22T09:06:47.151Z,73888.00
2019-02-22T09:07:47.084Z,76448.00
2019-02-22T09:08:47.115Z,77472.00
2019-02-22T09:09:46.813Z,76416.00
2019-02-22T09:10:46.782Z,75744.00
2019-02-22T09:11:46.787Z,76480.00
2019-02-22T09:12:47.141Z,77440.00
2019-02-22T09:13:46.753Z,77248.00
2019-02-22T09:14:46.742Z,78720.00
2019-02-22T09:15:46.732Z,78848.00
2019-02-22T09:16:47.042Z,78720.00
2019-02-22T09:17:46.707Z,79936.00
2019-02-22T09:18:47.049Z,78944.00
2019-02-22T09:19:46.688Z,78912.00
2019-02-22T09:20:46.679Z,77888.00
2019-02-22T09:21:46.664Z,78400.00
2019-02-22T09:22:46.669Z,79328.00
2019-02-22T09:23:47.381Z,79776.00
2019-02-22T09:24:46.665Z,80480.00
2019-02-22T09:25:46.613Z,82816.00
2019-02-22T09:26:46.610Z,83360.00
2019-02-22T09:27:46.590Z,83712.00
2019-02-22T09:28:57.117Z,83136.00
2019-02-22T09:29:57.831Z,83680.00
2019-02-22T09:30:47.601Z,83904.00
2019-02-22T09:31:46.550Z,84320.00
2019-02-22T09:32:46.541Z,83808.00
2019-02-22T09:33:46.535Z,84512.00
2019-02-22T09:34:46.519Z,83264.00
2019-02-22T09:35:46.529Z,84000.00
2019-02-22T09:36:46.695Z,80448.00
2019-02-22T09:37:46.487Z,81600.00
2019-02-22T09:38:46.477Z,83808.00
2019-02-22T09:39:46.470Z,84512.00
2019-02-22T09:40:46.455Z,85888.00
2019-02-22T09:41:46.456Z,85024.00
2019-02-22T09:42:46.606Z,87680.00
2019-02-22T09:43:54.742Z,86016.00
2019-02-22T09:44:47.406Z,85440.00
2019-02-22T09:45:46.413Z,89664.00
2019-02-22T09:46:46.417Z,88672.00
2019-02-22T09:47:46.913Z,85984.00
2019-02-22T09:48:46.441Z,86272.00
2019-02-22T09:49:46.352Z,90304.00
2019-02-22T09:50:46.341Z,91168.00
2019-02-22T09:51:46.336Z,89472.00
2019-02-22T09:52:46.326Z,87936.00
2019-02-22T09:53:46.400Z,89088.00
2019-02-22T09:54:46.344Z,92608.00
2019-02-22T09:55:46.292Z,91232.00
2019-02-22T09:56:46.279Z,91968.00
2019-02-22T09:57:46.273Z,92384.00
2019-02-22T09:58:46.254Z,91328.00
2019-02-22T09:59:56.995Z,91872.00
2019-02-22T10:00:46.234Z,90176.00
2019-02-22T10:01:46.225Z,89152.00
2019-02-22T10:02:46.209Z,91072.00
2019-02-22T10:03:46.250Z,92704.00
2019-02-22T10:04:54.682Z,93216.00
2019-02-22T10:05:47.360Z,94720.00
2019-02-22T10:06:46.180Z,91840.00
2019-02-22T10:07:46.158Z,93184.00
2019-02-22T10:08:46.146Z,94880.00
2019-02-22T10:09:46.144Z,94432.00
2019-02-22T10:10:46.129Z,94304.00
2019-02-22T10:11:46.167Z,94496.00
2019-02-22T10:12:46.105Z,93728.00
2019-02-22T10:13:46.099Z,96544.00
2019-02-22T10:14:46.099Z,96800.00
2019-02-22T10:15:46.081Z,96256.00
2019-02-22T10:16:46.070Z,95392.00
2019-02-22T10:17:46.075Z,95296.00
2019-02-22T10:18:46.040Z,96064.00
2019-02-22T10:19:46.051Z,97664.00
2019-02-22T10:20:46.031Z,96128.00
2019-02-22T10:21:46.034Z,92544.00
2019-02-22T10:22:46.155Z,92672.00
2019-02-22T10:23:46.165Z,91520.00
2019-02-22T10:24:45.987Z,95872.00
2019-02-22T10:25:45.965Z,95552.00
2019-02-22T10:26:45.973Z,95424.00
2019-02-22T10:27:45.993Z,95648.00
2019-02-22T10:28:45.942Z,94048.00
2019-02-22T10:29:45.968Z,93632.00
2019-02-22T10:30:56.732Z,93952.00
2019-02-22T10:31:45.910Z,92000.00
2019-02-22T10:32:45.895Z,94592.00
2019-02-22T10:33:45.888Z,94976.00
2019-02-22T10:34:45.875Z,96352.00
2019-02-22T10:35:45.913Z,96416.00
2019-02-22T10:36:45.851Z,91968.00
2019-02-22T10:37:45.843Z,95968.00
2019-02-22T10:38:45.835Z,94464.00
2019-02-22T10:39:45.826Z,96352.00
2019-02-22T10:40:45.812Z,94176.00
2019-02-22T10:41:45.844Z,93312.00
2019-02-22T10:42:45.787Z,95744.00
2019-02-22T10:43:45.785Z,95904.00
2019-02-22T10:44:45.773Z,97248.00
2019-02-22T10:45:45.763Z,97568.00
2019-02-22T10:46:45.774Z,102048.00
2019-02-22T10:47:45.803Z,102112.00
2019-02-22T10:48:45.726Z,101952.00
2019-02-22T10:49:45.717Z,103232.00
2019-02-22T10:50:45.707Z,101536.00
2019-02-22T10:51:45.704Z,103520.00
2019-02-22T10:52:45.690Z,102592.00
2019-02-22T10:53:45.846Z,105984.00
2019-02-22T10:54:45.687Z,103712.00
2019-02-22T10:55:45.663Z,102400.00
2019-02-22T10:56:45.649Z,98848.00
2019-02-22T10:57:45.641Z,94752.00
2019-02-22T10:58:45.632Z,94720.00
2019-02-22T10:59:46.651Z,92832.00
2019-02-22T11:00:45.623Z,91936.00
2019-02-22T11:01:56.531Z,92800.00
2019-02-22T11:02:45.587Z,95584.00
2019-02-22T11:03:45.574Z,97952.00
2019-02-22T11:04:45.567Z,100320.00
2019-02-22T11:05:45.598Z,102912.00
2019-02-22T11:06:45.560Z,102816.00
2019-02-22T11:07:45.551Z,99168.00
2019-02-22T11:08:45.525Z,99072.00
2019-02-22T11:09:45.515Z,96128.00
2019-02-22T11:10:45.512Z,96032.00
2019-02-22T11:11:45.537Z,95168.00
2019-02-22T11:12:45.486Z,70240.00
2019-02-22T11:13:45.487Z,29696.00
2019-02-22T11:14:45.477Z,47936.00
2019-02-22T11:15:45.475Z,87296.00
2019-02-22T11:16:45.444Z,96544.00
2019-02-22T11:17:45.474Z,94336.00
2019-02-22T11:18:45.421Z,93856.00
2019-02-22T11:19:45.410Z,95840.00
2019-02-22T11:20:45.399Z,95488.00
2019-02-22T11:21:45.390Z,97280.00
2019-02-22T11:22:45.395Z,95872.00
2019-02-22T11:23:45.421Z,93536.00
2019-02-22T11:24:45.362Z,95456.00
2019-02-22T11:25:45.358Z,96288.00
2019-02-22T11:26:45.342Z,94976.00
2019-02-22T11:27:45.326Z,96864.00
2019-02-22T11:28:45.315Z,95936.00
2019-02-22T11:29:45.343Z,94720.00
2019-02-22T11:30:45.309Z,97344.00
2019-02-22T11:31:45.288Z,92576.00
2019-02-22T11:32:55.238Z,91904.00
2019-02-22T11:33:45.270Z,94208.00
2019-02-22T11:34:45.258Z,92960.00
2019-02-22T11:35:45.290Z,92576.00
2019-02-22T11:36:45.237Z,95520.00
2019-02-22T11:37:45.222Z,95008.00
2019-02-22T11:38:45.214Z,97184.00
2019-02-22T11:39:45.199Z,95776.00
2019-02-22T11:40:45.191Z,94400.00
2019-02-22T11:41:52.602Z,94400.00
2019-02-22T11:42:45.167Z,95616.00
2019-02-22T11:43:52.149Z,93088.00
2019-02-22T11:44:45.149Z,91904.00
2019-02-22T11:45:45.135Z,94624.00
2019-02-22T11:46:45.127Z,93184.00
2019-02-22T11:47:45.167Z,89920.00
2019-02-22T11:48:45.113Z,93216.00
2019-02-22T11:49:45.094Z,94080.00
2019-02-22T11:50:45.091Z,87232.00
2019-02-22T11:51:45.074Z,86560.00
2019-02-22T11:52:45.071Z,91008.00
2019-02-22T11:53:45.167Z,84448.00
2019-02-22T11:54:45.049Z,85920.00
2019-02-22T11:55:45.052Z,93504.00
2019-02-22T11:56:45.021Z,88672.00
2019-02-22T11:57:45.051Z,86208.00
2019-02-22T11:58:45.005Z,93632.00
2019-02-22T11:59:45.029Z,90080.00
2019-02-22T12:00:44.991Z,86912.00
2019-02-22T12:01:44.977Z,94592.00
2019-02-22T12:02:45.616Z,88960.00
2019-02-22T12:03:44.960Z,87424.00
2019-02-22T12:04:44.963Z,92864.00
2019-02-22T12:05:44.977Z,84896.00
2019-02-22T12:06:44.920Z,88096.00
2019-02-22T12:07:45.618Z,87264.00
2019-02-22T12:08:44.902Z,85408.00
2019-02-22T12:09:44.899Z,90016.00
2019-02-22T12:10:44.887Z,86144.00
2019-02-22T12:11:44.910Z,87200.00
2019-02-22T12:12:44.884Z,88352.00
2019-02-22T12:13:44.850Z,85984.00
2019-02-22T12:14:54.991Z,88128.00
2019-02-22T12:15:44.823Z,84480.00
2019-02-22T12:16:44.825Z,88960.00
2019-02-22T12:17:44.840Z,86496.00
2019-02-22T12:18:44.801Z,85408.00